• Join FlightAware (Why Join?)
  • Login
  • US Flag GB Flag 
14:25 EDT


 

Airport Tracker/Info


-or-


 

Live Flight TrackerFlight Track Log ✈ JBU917 ✈ 12-Jul-2013 ✈ KBOS - KJFK

Flight Track Log - Related Links

Times and Time Zones

All times are in EDT time to prevent confusion due to time zone crossing. See the JBU917 flight status page for this flight to view local times or setup timezone preferences in your user account.

Time Position Orientation Groundspeed Altitude Reporting Facility
EDT Latitude Longitude Course Direction KTS MPH feet Rate Location/Type
05:54 42.3500 -70.9833 200° South 136 157 900  Level KA90
05:55 42.3167 -70.9167 124° Southeast 202 232 4,100 2,460 Climbing KA90
05:57 42.2868 -70.6847 164° South  Level FlightAware Approximate
05:57 42.3156 -70.8003 91° East 271 312 7,500  Level Boston Center
05:58 42.1968 -70.6317 160° South  Level FlightAware Approximate
05:58 42.2581 -70.7206 134° Southeast 271 312 10,900  Level Boston Center
05:59 42.1041 -70.6146 200° South  Level FlightAware Approximate
05:59 42.1703 -70.6950 168° South 279 321 12,400  Level Boston Center
06:00 42.0683 -70.7117 187° South 311 358 15,200 2,640 Climbing Boston Center
06:01 41.9644 -70.7286 187° South 347 399 17,700 2,220 Climbing Boston Center
06:02 41.8522 -70.7456 186° South 385 443 19,700 1,980 Climbing Boston Center
06:03 41.7592 -70.8008 204° Southwest 392 451 21,700 1,140 Climbing Boston Center
06:04 41.6767 -70.8753 214° Southwest 411 473 22,000 120 Climbing Boston Center
06:05 41.5592 -70.9614 209° Southwest 411 473 22,000  Level Boston Center
06:06 41.4856 -71.0739 229° Southwest 399 459 22,000  Level Boston Center
06:07 41.4119 -71.1864 229° Southwest 399 459 22,000  Level Boston Center
06:08 41.3442 -71.3008 232° Southwest 404 465 22,000  Level Boston Center
06:09 41.2744 -71.4156 231° Southwest 404 465 22,000  Level Boston Center
06:10 41.2361 -71.5514 249° West 390 449 22,000  Level Boston Center
06:11 41.2056 -71.6647 250° West 382 440 22,000  Level Boston Center
06:12 41.1731 -71.7975 252° West 382 440 22,000  Level Boston Center
06:13 41.1444 -71.9081 251° West 387 445 22,000  Level Boston Center
06:14 41.0828 -72.0739 244° Southwest 387 445 22,000 -900 Level Boston Center
06:15 41.0308 -72.1981 241° Southwest 387 445 20,200 -1,920 Descending Boston Center
06:16 40.9853 -72.3053 241° Southwest 382 440 18,200 -2,040 Descending Boston Center
06:17 40.9353 -72.4264 241° Southwest 377 434 16,200 -2,040 Descending Boston Center
06:18 40.8831 -72.5553 242° Southwest 377 434 14,200 -2,040 Descending Boston Center
06:19 40.8392 -72.6706 243° Southwest 365 420 12,200 -960 Descending Boston Center
06:20 40.7833 -72.8000 240° Southwest 303 349 12,100 -540 Descending New York TRACON
06:21 40.7500 -72.8833 242° Southwest 299 344 11,100 -1,320 Descending New York TRACON
06:22 40.7167 -72.9500 237° Southwest 288 331 9,900 -1,680 Descending New York TRACON
06:23 40.6667 -73.0667 241° Southwest 284 327 7,800 -1,680 Descending New York TRACON
06:24 40.6167 -73.1167 217° Southwest 281 323 6,400 -1,680 Descending New York TRACON
06:25 40.5667 -73.1833 225° Southwest 285 328 4,800 -1,740 Descending New York TRACON
06:26 40.5167 -73.2667 232° Southwest 284 327 3,200 -1,200 Descending New York TRACON
06:27 40.4833 -73.3667 246° West 278 320 2,300 -600 Descending New York TRACON
06:28 40.4667 -73.4667 258° West 277 319 2,000 -180 Descending New York TRACON
06:29 40.4500 -73.5500 255° West 278 320 2,000  Level New York TRACON
06:29 40.4333 -73.6333 255° West 275 316 2,000  Level New York TRACON
06:30 40.4167 -73.7500 259° West 277 319 2,000 -240 Level New York TRACON
06:31 40.4167 -73.8333 270° West 274 315 1,600 -300 Descending New York TRACON
06:32 40.4333 -73.9000 288° West 245 282 1,500 -60 Descending New York TRACON
06:33 40.5000 -73.8667 21° North 204 235 1,500  Level New York TRACON
06:34 40.5333 -73.8333 37° Northeast 186 214 1,500 -240 Level New York TRACON
06:35 40.5833 -73.8000 27° Northeast 171 197 1,100 -540 Descending New York TRACON
06:36 40.6000 -73.7833 37° Northeast 116 133 600 -600 Descending New York TRACON
06:38 40.6333 -73.7667 North  Level FlightAware Approximate